sensor_id;sensor_type;location;lat;lon;timestamp;pressure;altitude;pressure_sealevel;temperature;humidity
17230;BME280;8731;50.364;8.958;2023-04-23T00:01:07;99343.72;;;14.60;90.69
17230;BME280;8731;50.364;8.958;2023-04-23T00:05:30;99345.50;;;14.61;92.28
17230;BME280;8731;50.364;8.958;2023-04-23T00:09:56;99342.66;;;14.57;94.02
17230;BME280;8731;50.364;8.958;2023-04-23T00:14:19;99336.22;;;14.37;97.11
17230;BME280;8731;50.364;8.958;2023-04-23T00:18:42;99338.84;;;14.50;93.95
17230;BME280;8731;50.364;8.958;2023-04-23T00:23:04;99329.19;;;14.46;96.06
17230;BME280;8731;50.364;8.958;2023-04-23T00:27:28;99331.50;;;14.30;95.88
17230;BME280;8731;50.364;8.958;2023-04-23T00:31:50;99332.50;;;14.32;96.74
17230;BME280;8731;50.364;8.958;2023-04-23T00:36:12;99332.09;;;14.26;95.23
17230;BME280;8731;50.364;8.958;2023-04-23T00:40:35;99329.44;;;14.37;95.12
17230;BME280;8731;50.364;8.958;2023-04-23T00:44:59;99330.94;;;14.21;95.29
17230;BME280;8731;50.364;8.958;2023-04-23T00:49:22;99330.13;;;14.08;96.94
17230;BME280;8731;50.364;8.958;2023-04-23T00:53:45;99329.72;;;14.16;95.95
17230;BME280;8731;50.364;8.958;2023-04-23T00:58:07;99324.72;;;14.04;98.71
17230;BME280;8731;50.364;8.958;2023-04-23T01:02:32;99330.53;;;14.01;98.91
17230;BME280;8731;50.364;8.958;2023-04-23T01:06:58;99326.00;;;14.10;97.45
17230;BME280;8731;50.364;8.958;2023-04-23T01:11:21;99328.56;;;13.97;99.38
17230;BME280;8731;50.364;8.958;2023-04-23T01:15:44;99341.34;;;14.10;97.64
17230;BME280;8731;50.364;8.958;2023-04-23T01:20:08;99334.91;;;13.91;98.62
17230;BME280;8731;50.364;8.958;2023-04-23T01:24:33;99335.66;;;14.01;98.11
17230;BME280;8731;50.364;8.958;2023-04-23T01:28:56;99337.03;;;13.96;98.78
17230;BME280;8731;50.364;8.958;2023-04-23T01:33:19;99341.03;;;13.93;99.70
17230;BME280;8731;50.364;8.958;2023-04-23T01:37:42;99349.97;;;13.86;99.05
17230;BME280;8731;50.364;8.958;2023-04-23T01:42:07;99351.34;;;13.81;100.00
17230;BME280;8731;50.364;8.958;2023-04-23T01:46:30;99353.03;;;13.94;98.81
17230;BME280;8731;50.364;8.958;2023-04-23T01:50:53;99354.31;;;13.87;98.45
17230;BME280;8731;50.364;8.958;2023-04-23T01:55:16;99353.25;;;13.97;97.30
17230;BME280;8731;50.364;8.958;2023-04-23T01:59:41;99361.78;;;13.84;97.31
17230;BME280;8731;50.364;8.958;2023-04-23T02:04:03;99372.63;;;13.93;98.24
17230;BME280;8731;50.364;8.958;2023-04-23T02:08:26;99361.94;;;13.99;98.38
17230;BME280;8731;50.364;8.958;2023-04-23T02:12:49;99366.72;;;13.81;99.00
17230;BME280;8731;50.364;8.958;2023-04-23T02:17:12;99374.66;;;13.72;98.77
17230;BME280;8731;50.364;8.958;2023-04-23T02:21:35;99364.47;;;13.61;96.86
17230;BME280;8731;50.364;8.958;2023-04-23T02:25:57;99374.78;;;13.74;98.39
17230;BME280;8731;50.364;8.958;2023-04-23T02:30:19;99371.94;;;13.58;100.00
17230;BME280;8731;50.364;8.958;2023-04-23T02:34:43;99374.78;;;13.74;97.57
17230;BME280;8731;50.364;8.958;2023-04-23T02:39:06;99377.22;;;13.72;97.22
17230;BME280;8731;50.364;8.958;2023-04-23T02:43:28;99382.78;;;13.67;99.09
17230;BME280;8731;50.364;8.958;2023-04-23T02:47:50;99382.78;;;13.67;99.24
17230;BME280;8731;50.364;8.958;2023-04-23T02:52:15;99378.66;;;13.69;96.50
17230;BME280;8731;50.364;8.958;2023-04-23T02:56:37;99375.91;;;13.66;97.22
17230;BME280;8731;50.364;8.958;2023-04-23T03:01:01;99381.09;;;13.54;97.01
17230;BME280;8731;50.364;8.958;2023-04-23T03:05:24;99387.75;;;13.77;96.51
17230;BME280;8731;50.364;8.958;2023-04-23T03:09:48;99385.66;;;13.71;96.84
17230;BME280;8731;50.364;8.958;2023-04-23T03:14:10;99387.50;;;13.61;98.11
17230;BME280;8731;50.364;8.958;2023-04-23T03:18:32;99387.31;;;13.71;96.45
17230;BME280;8731;50.364;8.958;2023-04-23T03:22:55;99387.69;;;13.64;98.81
17230;BME280;8731;50.364;8.958;2023-04-23T03:27:19;99389.75;;;13.56;96.92
17230;BME280;8731;50.364;8.958;2023-04-23T03:31:41;99399.03;;;13.67;97.16
17230;BME280;8731;50.364;8.958;2023-04-23T03:36:04;99397.94;;;13.64;95.61
17230;BME280;8731;50.364;8.958;2023-04-23T03:40:27;99392.56;;;13.72;96.85
17230;BME280;8731;50.364;8.958;2023-04-23T03:44:55;99390.13;;;13.74;96.24
17230;BME280;8731;50.364;8.958;2023-04-23T03:49:17;99388.66;;;13.77;95.59
17230;BME280;8731;50.364;8.958;2023-04-23T03:53:40;99388.28;;;13.60;97.27
17230;BME280;8731;50.364;8.958;2023-04-23T03:58:21;99386.44;;;13.45;98.35
17230;BME280;8731;50.364;8.958;2023-04-23T04:02:44;99402.75;;;13.59;97.20
17230;BME280;8731;50.364;8.958;2023-04-23T04:07:07;99401.00;;;13.71;96.00
17230;BME280;8731;50.364;8.958;2023-04-23T04:11:31;99392.25;;;13.43;98.80
17230;BME280;8731;50.364;8.958;2023-04-23T04:15:53;99396.56;;;13.44;98.21
17230;BME280;8731;50.364;8.958;2023-04-23T04:20:17;99399.34;;;13.47;97.00
17230;BME280;8731;50.364;8.958;2023-04-23T04:24:39;99412.50;;;13.40;98.03
17230;BME280;8731;50.364;8.958;2023-04-23T04:29:01;99405.19;;;13.58;97.98
17230;BME280;8731;50.364;8.958;2023-04-23T04:33:24;99404.56;;;13.48;98.22
17230;BME280;8731;50.364;8.958;2023-04-23T04:37:47;99397.13;;;13.51;98.84
17230;BME280;8731;50.364;8.958;2023-04-23T04:42:13;99398.63;;;13.61;97.20
17230;BME280;8731;50.364;8.958;2023-04-23T04:46:35;99406.28;;;13.61;97.85
17230;BME280;8731;50.364;8.958;2023-04-23T04:50:59;99407.09;;;13.48;100.00
17230;BME280;8731;50.364;8.958;2023-04-23T04:55:23;99416.13;;;13.55;99.12
17230;BME280;8731;50.364;8.958;2023-04-23T04:59:46;99416.44;;;13.48;99.37
17230;BME280;8731;50.364;8.958;2023-04-23T05:04:08;99408.22;;;13.52;98.38
17230;BME280;8731;50.364;8.958;2023-04-23T05:08:31;99401.78;;;13.45;98.73
17230;BME280;8731;50.364;8.958;2023-04-23T05:12:55;99425.09;;;13.62;96.63
17230;BME280;8731;50.364;8.958;2023-04-23T05:17:17;99426.91;;;13.51;95.92
17230;BME280;8731;50.364;8.958;2023-04-23T05:21:40;99425.97;;;13.62;97.26
17230;BME280;8731;50.364;8.958;2023-04-23T05:26:02;99421.53;;;13.60;97.87
17230;BME280;8731;50.364;8.958;2023-04-23T05:30:26;99431.25;;;13.52;98.33
17230;BME280;8731;50.364;8.958;2023-04-23T05:34:49;99429.00;;;13.57;98.46
17230;BME280;8731;50.364;8.958;2023-04-23T05:39:11;99421.16;;;13.67;97.04
17230;BME280;8731;50.364;8.958;2023-04-23T05:43:33;99414.34;;;13.54;98.25
17230;BME280;8731;50.364;8.958;2023-04-23T05:47:57;99418.81;;;13.70;96.58
17230;BME280;8731;50.364;8.958;2023-04-23T05:52:19;99415.91;;;13.77;98.33
17230;BME280;8731;50.364;8.958;2023-04-23T05:56:41;99417.75;;;14.04;94.49
17230;BME280;8731;50.364;8.958;2023-04-23T06:01:04;99424.44;;;14.02;96.71
17230;BME280;8731;50.364;8.958;2023-04-23T06:05:27;99430.66;;;14.06;97.96
17230;BME280;8731;50.364;8.958;2023-04-23T06:09:50;99440.72;;;13.91;95.42
17230;BME280;8731;50.364;8.958;2023-04-23T06:14:12;99424.75;;;14.07;97.36
17230;BME280;8731;50.364;8.958;2023-04-23T06:18:34;99428.38;;;14.10;97.45
17230;BME280;8731;50.364;8.958;2023-04-23T06:22:59;99427.00;;;14.16;94.18
17230;BME280;8731;50.364;8.958;2023-04-23T06:27:22;99428.53;;;14.38;96.84
17230;BME280;8731;50.364;8.958;2023-04-23T06:31:47;99432.47;;;14.20;94.54
17230;BME280;8731;50.364;8.958;2023-04-23T06:36:09;99424.09;;;14.36;94.93
17230;BME280;8731;50.364;8.958;2023-04-23T06:40:35;99428.53;;;14.38;95.59
17230;BME280;8731;50.364;8.958;2023-04-23T06:44:57;99424.09;;;14.36;92.28
17230;BME280;8731;50.364;8.958;2023-04-23T06:49:23;99419.94;;;14.38;92.99
17230;BME280;8731;50.364;8.958;2023-04-23T06:53:45;99415.88;;;14.53;92.78
17230;BME280;8731;50.364;8.958;2023-04-23T06:58:09;99412.31;;;14.78;89.91
17230;BME280;8731;50.364;8.958;2023-04-23T07:02:31;99405.75;;;15.09;88.23
17230;BME280;8731;50.364;8.958;2023-04-23T07:06:54;99419.22;;;15.61;86.66
17230;BME280;8731;50.364;8.958;2023-04-23T07:11:16;99420.50;;;15.26;86.84
17230;BME280;8731;50.364;8.958;2023-04-23T07:15:40;99414.75;;;15.44;85.71
17230;BME280;8731;50.364;8.958;2023-04-23T07:20:03;99418.81;;;15.40;84.49
17230;BME280;8731;50.364;8.958;2023-04-23T07:24:27;99403.00;;;15.75;85.22
17230;BME280;8731;50.364;8.958;2023-04-23T07:28:50;99397.53;;;15.99;83.96
17230;BME280;8731;50.364;8.958;2023-04-23T07:33:13;99393.25;;;16.73;81.07
17230;BME280;8731;50.364;8.958;2023-04-23T07:37:36;99394.88;;;15.97;80.63
17230;BME280;8731;50.364;8.958;2023-04-23T07:41:59;99378.66;;;16.57;80.28
17230;BME280;8731;50.364;8.958;2023-04-23T07:46:21;99383.16;;;17.39;77.58
17230;BME280;8731;50.364;8.958;2023-04-23T07:50:45;99381.31;;;17.37;76.58
17230;BME280;8731;50.364;8.958;2023-04-23T07:55:08;99368.19;;;18.15;73.73
17230;BME280;8731;50.364;8.958;2023-04-23T07:59:30;99373.41;;;18.51;71.35
17230;BME280;8731;50.364;8.958;2023-04-23T08:03:52;99386.00;;;18.10;71.83
17230;BME280;8731;50.364;8.958;2023-04-23T08:08:16;99396.88;;;18.57;71.15
17230;BME280;8731;50.364;8.958;2023-04-23T08:12:39;99395.31;;;18.42;71.23
17230;BME280;8731;50.364;8.958;2023-04-23T08:17:01;99385.75;;;18.22;71.62
17230;BME280;8731;50.364;8.958;2023-04-23T08:21:24;99387.66;;;18.26;71.68
17230;BME280;8731;50.364;8.958;2023-04-23T08:25:48;99385.72;;;18.04;71.53
17230;BME280;8731;50.364;8.958;2023-04-23T08:30:11;99392.03;;;18.11;71.39
17230;BME280;8731;50.364;8.958;2023-04-23T08:34:33;99391.69;;;17.38;72.05
17230;BME280;8731;50.364;8.958;2023-04-23T08:38:55;99381.16;;;17.34;72.18
17230;BME280;8731;50.364;8.958;2023-04-23T08:43:27;99366.44;;;18.14;71.68
17230;BME280;8731;50.364;8.958;2023-04-23T08:47:57;99356.72;;;18.97;68.00
17230;BME280;8731;50.364;8.958;2023-04-23T08:52:22;99373.25;;;18.83;66.64
17230;BME280;8731;50.364;8.958;2023-04-23T08:56:46;99360.34;;;19.40;65.00
17230;BME280;8731;50.364;8.958;2023-04-23T09:01:11;99352.31;;;19.91;62.61
17230;BME280;8731;50.364;8.958;2023-04-23T09:05:34;99352.78;;;20.23;63.26
17230;BME280;8731;50.364;8.958;2023-04-23T09:09:57;99349.44;;;19.85;63.79
17230;BME280;8731;50.364;8.958;2023-04-23T09:14:21;99346.94;;;19.66;63.47
17230;BME280;8731;50.364;8.958;2023-04-23T09:18:46;99337.38;;;20.05;61.69
17230;BME280;8731;50.364;8.958;2023-04-23T09:23:13;99326.28;;;20.94;57.47
17230;BME280;8731;50.364;8.958;2023-04-23T09:27:36;99329.94;;;20.99;59.08
17230;BME280;8731;50.364;8.958;2023-04-23T09:32:05;99317.25;;;20.83;58.27
17230;BME280;8731;50.364;8.958;2023-04-23T09:36:30;99314.41;;;21.23;57.76
17230;BME280;8731;50.364;8.958;2023-04-23T09:40:53;99312.28;;;21.34;57.85
17230;BME280;8731;50.364;8.958;2023-04-23T09:45:16;99312.81;;;21.25;57.84
17230;BME280;8731;50.364;8.958;2023-04-23T09:49:45;99311.59;;;21.39;57.24
17230;BME280;8731;50.364;8.958;2023-04-23T09:54:14;99315.44;;;21.51;54.94
17230;BME280;8731;50.364;8.958;2023-04-23T09:58:37;99300.78;;;21.27;56.12
17230;BME280;8731;50.364;8.958;2023-04-23T10:03:00;99299.75;;;21.97;55.25
17230;BME280;8731;50.364;8.958;2023-04-23T10:07:22;99298.72;;;21.66;55.35
17230;BME280;8731;50.364;8.958;2023-04-23T10:11:47;99294.56;;;21.71;52.81
17230;BME280;8731;50.364;8.958;2023-04-23T10:16:11;99283.84;;;22.67;53.05
17230;BME280;8731;50.364;8.958;2023-04-23T10:20:34;99282.06;;;22.09;53.40
17230;BME280;8731;50.364;8.958;2023-04-23T10:24:59;99278.03;;;23.03;52.13
17230;BME280;8731;50.364;8.958;2023-04-23T10:29:28;99279.91;;;23.40;51.88
17230;BME280;8731;50.364;8.958;2023-04-23T10:33:52;99278.34;;;22.56;52.50
17230;BME280;8731;50.364;8.958;2023-04-23T10:38:17;99273.19;;;22.85;52.50
17230;BME280;8731;50.364;8.958;2023-04-23T10:42:41;99261.81;;;22.81;50.25
17230;BME280;8731;50.364;8.958;2023-04-23T10:47:06;99265.38;;;23.15;50.30
17230;BME280;8731;50.364;8.958;2023-04-23T10:51:33;99257.06;;;22.68;50.45
17230;BME280;8731;50.364;8.958;2023-04-23T10:56:04;99255.44;;;22.43;50.51
17230;BME280;8731;50.364;8.958;2023-04-23T11:00:28;99255.41;;;21.62;52.77
17230;BME280;8731;50.364;8.958;2023-04-23T11:05:07;99252.16;;;21.95;52.15
17230;BME280;8731;50.364;8.958;2023-04-23T11:09:34;99249.25;;;22.38;51.82
17230;BME280;8731;50.364;8.958;2023-04-23T11:14:10;99240.84;;;22.18;51.01
17230;BME280;8731;50.364;8.958;2023-04-23T11:18:55;99243.38;;;22.17;50.62
17230;BME280;8731;50.364;8.958;2023-04-23T11:23:29;99242.22;;;22.07;51.43
17230;BME280;8731;50.364;8.958;2023-04-23T11:27:54;99239.03;;;22.16;50.83
17230;BME280;8731;50.364;8.958;2023-04-23T11:32:18;99228.53;;;22.11;52.47
17230;BME280;8731;50.364;8.958;2023-04-23T11:36:41;99217.66;;;21.97;49.36
17230;BME280;8731;50.364;8.958;2023-04-23T11:41:05;99218.63;;;21.74;48.61
17230;BME280;8731;50.364;8.958;2023-04-23T11:45:28;99217.22;;;21.57;49.05
17230;BME280;8731;50.364;8.958;2023-04-23T11:49:50;99195.72;;;21.59;48.48
17230;BME280;8731;50.364;8.958;2023-04-23T11:54:13;99186.63;;;21.72;48.75
17230;BME280;8731;50.364;8.958;2023-04-23T11:58:37;99191.44;;;21.34;50.02
17230;BME280;8731;50.364;8.958;2023-04-23T12:03:00;99186.88;;;21.80;51.26
17230;BME280;8731;50.364;8.958;2023-04-23T12:07:30;99176.34;;;21.75;50.06
17230;BME280;8731;50.364;8.958;2023-04-23T12:11:53;99178.09;;;21.24;50.64
17230;BME280;8731;50.364;8.958;2023-04-23T12:16:32;99169.53;;;21.77;50.25
17230;BME280;8731;50.364;8.958;2023-04-23T12:21:03;99160.03;;;21.78;50.43
17230;BME280;8731;50.364;8.958;2023-04-23T12:25:26;99160.06;;;21.27;49.09
17230;BME280;8731;50.364;8.958;2023-04-23T12:29:58;99156.19;;;21.39;50.58
17230;BME280;8731;50.364;8.958;2023-04-23T12:34:22;99154.81;;;21.00;51.06
17230;BME280;8731;50.364;8.958;2023-04-23T12:38:45;99161.13;;;20.82;50.87
17230;BME280;8731;50.364;8.958;2023-04-23T12:43:07;99158.41;;;21.29;50.53
17230;BME280;8731;50.364;8.958;2023-04-23T12:47:29;99146.22;;;20.77;52.54
17230;BME280;8731;50.364;8.958;2023-04-23T12:51:54;99139.75;;;20.64;52.64
17230;BME280;8731;50.364;8.958;2023-04-23T12:56:20;99150.09;;;20.64;52.43
17230;BME280;8731;50.364;8.958;2023-04-23T13:00:42;99140.72;;;20.44;52.67
17230;BME280;8731;50.364;8.958;2023-04-23T13:05:06;99126.97;;;20.45;52.27
17230;BME280;8731;50.364;8.958;2023-04-23T13:09:30;99108.00;;;20.94;52.25
17230;BME280;8731;50.364;8.958;2023-04-23T13:13:55;99094.66;;;20.58;52.77
17230;BME280;8731;50.364;8.958;2023-04-23T13:18:17;99073.00;;;20.79;52.00
17230;BME280;8731;50.364;8.958;2023-04-23T13:22:41;99070.06;;;20.69;52.11
17230;BME280;8731;50.364;8.958;2023-04-23T13:27:05;99053.25;;;21.07;52.59
17230;BME280;8731;50.364;8.958;2023-04-23T13:31:28;99043.38;;;21.22;52.66
17230;BME280;8731;50.364;8.958;2023-04-23T13:35:50;99043.28;;;20.92;51.00
17230;BME280;8731;50.364;8.958;2023-04-23T13:40:13;99026.81;;;21.17;48.97
17230;BME280;8731;50.364;8.958;2023-04-23T13:44:37;99019.19;;;21.22;50.11
17230;BME280;8731;50.364;8.958;2023-04-23T13:48:59;99018.25;;;20.93;50.11
17230;BME280;8731;50.364;8.958;2023-04-23T13:53:22;99015.16;;;20.77;49.03
17230;BME280;8731;50.364;8.958;2023-04-23T13:57:44;99000.19;;;21.21;49.38
17230;BME280;8731;50.364;8.958;2023-04-23T14:02:08;98999.56;;;21.01;50.28
17230;BME280;8731;50.364;8.958;2023-04-23T14:06:30;98988.41;;;21.04;48.68
17230;BME280;8731;50.364;8.958;2023-04-23T14:10:53;98991.50;;;20.92;49.59
17230;BME280;8731;50.364;8.958;2023-04-23T14:15:16;98992.28;;;20.90;47.65
17230;BME280;8731;50.364;8.958;2023-04-23T14:19:39;98983.38;;;21.07;48.03
17230;BME280;8731;50.364;8.958;2023-04-23T14:24:07;98973.72;;;21.03;47.16
17230;BME280;8731;50.364;8.958;2023-04-23T14:28:38;98973.25;;;20.88;47.88
17230;BME280;8731;50.364;8.958;2023-04-23T14:33:04;98956.66;;;21.08;46.63
17230;BME280;8731;50.364;8.958;2023-04-23T14:37:28;98950.28;;;20.98;43.85
17230;BME280;8731;50.364;8.958;2023-04-23T14:41:51;98944.53;;;21.34;46.41
17230;BME280;8731;50.364;8.958;2023-04-23T14:46:13;98929.66;;;21.28;45.24
17230;BME280;8731;50.364;8.958;2023-04-23T14:50:35;98922.69;;;21.54;45.68
17230;BME280;8731;50.364;8.958;2023-04-23T14:54:59;98915.19;;;21.06;43.63
17230;BME280;8731;50.364;8.958;2023-04-23T14:59:22;98901.47;;;21.37;43.96
17230;BME280;8731;50.364;8.958;2023-04-23T15:03:44;98898.34;;;20.92;42.04
17230;BME280;8731;50.364;8.958;2023-04-23T15:08:07;98885.94;;;21.09;42.30
17230;BME280;8731;50.364;8.958;2023-04-23T15:12:56;98883.28;;;21.07;42.41
17230;BME280;8731;50.364;8.958;2023-04-23T15:17:23;98884.06;;;21.32;43.04
17230;BME280;8731;50.364;8.958;2023-04-23T15:21:46;98889.44;;;21.11;42.52
17230;BME280;8731;50.364;8.958;2023-04-23T15:26:09;98879.84;;;21.07;43.88
17230;BME280;8731;50.364;8.958;2023-04-23T15:30:33;98869.34;;;21.04;43.84
17230;BME280;8731;50.364;8.958;2023-04-23T15:34:55;98863.72;;;21.17;45.10
17230;BME280;8731;50.364;8.958;2023-04-23T15:39:17;98867.16;;;20.88;43.96
17230;BME280;8731;50.364;8.958;2023-04-23T15:43:40;98861.22;;;20.63;43.93
17230;BME280;8731;50.364;8.958;2023-04-23T15:48:04;98855.59;;;20.76;43.63
17230;BME280;8731;50.364;8.958;2023-04-23T15:52:27;98852.31;;;20.55;44.92
17230;BME280;8731;50.364;8.958;2023-04-23T15:56:49;98855.41;;;20.70;45.45
17230;BME280;8731;50.364;8.958;2023-04-23T16:01:11;98848.16;;;20.59;44.92
17230;BME280;8731;50.364;8.958;2023-04-23T16:05:35;98846.03;;;20.47;45.54
17230;BME280;8731;50.364;8.958;2023-04-23T16:09:57;98835.69;;;20.47;47.59
17230;BME280;8731;50.364;8.958;2023-04-23T16:14:20;98833.84;;;20.43;47.72
17230;BME280;8731;50.364;8.958;2023-04-23T16:18:43;98820.97;;;20.19;46.69
17230;BME280;8731;50.364;8.958;2023-04-23T16:23:07;98812.16;;;20.39;48.00
17230;BME280;8731;50.364;8.958;2023-04-23T16:27:29;98816.03;;;20.00;48.37
17230;BME280;8731;50.364;8.958;2023-04-23T16:31:51;98810.75;;;19.97;48.29
17230;BME280;8731;50.364;8.958;2023-04-23T16:36:13;98805.34;;;19.89;48.65
17230;BME280;8731;50.364;8.958;2023-04-23T16:40:37;98797.75;;;19.68;47.47
17230;BME280;8731;50.364;8.958;2023-04-23T16:44:59;98796.88;;;19.93;48.62
17230;BME280;8731;50.364;8.958;2023-04-23T16:49:22;98795.94;;;19.91;49.01
17230;BME280;8731;50.364;8.958;2023-04-23T16:53:44;98791.31;;;19.82;48.69
17230;BME280;8731;50.364;8.958;2023-04-23T16:58:08;98779.63;;;19.67;48.27
17230;BME280;8731;50.364;8.958;2023-04-23T17:02:30;98793.41;;;19.67;48.19
17230;BME280;8731;50.364;8.958;2023-04-23T17:06:53;98796.91;;;19.69;47.88
17230;BME280;8731;50.364;8.958;2023-04-23T17:11:15;98805.59;;;19.47;48.99
17230;BME280;8731;50.364;8.958;2023-04-23T17:15:39;98864.00;;;19.21;48.83
17230;BME280;8731;50.364;8.958;2023-04-23T17:20:02;98893.78;;;17.87;61.89
17230;BME280;8731;50.364;8.958;2023-04-23T17:24:26;98907.00;;;17.18;71.25
17230;BME280;8731;50.364;8.958;2023-04-23T17:28:48;98909.09;;;16.90;73.91
17230;BME280;8731;50.364;8.958;2023-04-23T17:33:12;98908.16;;;17.25;72.63
17230;BME280;8731;50.364;8.958;2023-04-23T17:37:34;98906.66;;;16.93;75.66
17230;BME280;8731;50.364;8.958;2023-04-23T17:41:56;98882.09;;;17.37;72.16
17230;BME280;8731;50.364;8.958;2023-04-23T17:46:19;98875.50;;;17.05;71.98
17230;BME280;8731;50.364;8.958;2023-04-23T17:50:43;98868.25;;;16.96;74.68
17230;BME280;8731;50.364;8.958;2023-04-23T17:55:06;98859.72;;;16.97;73.92
17230;BME280;8731;50.364;8.958;2023-04-23T17:59:29;98868.84;;;16.73;75.59
17230;BME280;8731;50.364;8.958;2023-04-23T18:03:51;98867.00;;;16.88;74.49
17230;BME280;8731;50.364;8.958;2023-04-23T18:08:15;98856.66;;;16.33;77.56
17230;BME280;8731;50.364;8.958;2023-04-23T18:12:38;98861.22;;;16.74;75.14
17230;BME280;8731;50.364;8.958;2023-04-23T18:17:01;98865.47;;;16.74;75.50
17230;BME280;8731;50.364;8.958;2023-04-23T18:21:23;98869.06;;;16.60;75.65
17230;BME280;8731;50.364;8.958;2023-04-23T18:25:48;98867.78;;;16.51;77.36
17230;BME280;8731;50.364;8.958;2023-04-23T18:30:11;98872.06;;;16.33;77.42
17230;BME280;8731;50.364;8.958;2023-04-23T18:34:37;98869.78;;;16.39;78.03
17230;BME280;8731;50.364;8.958;2023-04-23T18:39:00;98863.91;;;16.24;75.40
17230;BME280;8731;50.364;8.958;2023-04-23T18:43:24;98879.53;;;16.28;75.78
17230;BME280;8731;50.364;8.958;2023-04-23T18:47:50;98876.16;;;16.12;75.34
17230;BME280;8731;50.364;8.958;2023-04-23T18:52:16;98877.97;;;16.14;77.42
17230;BME280;8731;50.364;8.958;2023-04-23T18:56:38;98890.31;;;15.87;76.95
17230;BME280;8731;50.364;8.958;2023-04-23T19:01:02;98882.41;;;16.01;77.21
17230;BME280;8731;50.364;8.958;2023-04-23T19:05:25;98885.78;;;16.00;77.77
17230;BME280;8731;50.364;8.958;2023-04-23T19:09:49;98892.72;;;15.84;79.25
17230;BME280;8731;50.364;8.958;2023-04-23T19:14:11;98894.44;;;16.02;77.78
17230;BME280;8731;50.364;8.958;2023-04-23T19:18:36;98889.66;;;15.91;77.81
17230;BME280;8731;50.364;8.958;2023-04-23T19:22:58;98886.91;;;16.05;76.29
17230;BME280;8731;50.364;8.958;2023-04-23T19:27:23;98886.97;;;15.72;77.76
17230;BME280;8731;50.364;8.958;2023-04-23T19:31:45;98886.81;;;15.69;79.36
17230;BME280;8731;50.364;8.958;2023-04-23T19:36:09;98897.59;;;15.47;80.55
17230;BME280;8731;50.364;8.958;2023-04-23T19:40:31;98895.28;;;15.52;78.34
17230;BME280;8731;50.364;8.958;2023-04-23T19:44:53;98887.81;;;15.56;78.83
17230;BME280;8731;50.364;8.958;2023-04-23T19:49:16;98890.00;;;15.49;78.31
17230;BME280;8731;50.364;8.958;2023-04-23T19:53:39;98896.00;;;15.49;77.72
17230;BME280;8731;50.364;8.958;2023-04-23T19:58:01;98888.63;;;15.39;77.85
17230;BME280;8731;50.364;8.958;2023-04-23T20:02:25;98892.25;;;15.43;77.09
17230;BME280;8731;50.364;8.958;2023-04-23T20:06:47;98892.28;;;15.28;78.06
17230;BME280;8731;50.364;8.958;2023-04-23T20:11:11;98892.06;;;15.23;78.53
17230;BME280;8731;50.364;8.958;2023-04-23T20:15:33;98896.63;;;15.29;78.15
17230;BME280;8731;50.364;8.958;2023-04-23T20:19:56;98891.38;;;15.11;78.18
17230;BME280;8731;50.364;8.958;2023-04-23T20:24:21;98890.44;;;15.25;78.31
17230;BME280;8731;50.364;8.958;2023-04-23T20:28:44;98903.59;;;15.15;78.77
17230;BME280;8731;50.364;8.958;2023-04-23T20:33:07;98893.72;;;15.07;79.49
17230;BME280;8731;50.364;8.958;2023-04-23T20:37:30;98896.41;;;14.93;79.40
17230;BME280;8731;50.364;8.958;2023-04-23T20:41:54;98890.81;;;14.69;79.79
17230;BME280;8731;50.364;8.958;2023-04-23T20:46:20;98883.56;;;14.77;80.53
17230;BME280;8731;50.364;8.958;2023-04-23T20:50:43;98891.78;;;14.71;80.82
17230;BME280;8731;50.364;8.958;2023-04-23T20:55:06;98886.50;;;14.68;80.55
17230;BME280;8731;50.364;8.958;2023-04-23T20:59:29;98885.16;;;14.60;81.47
17230;BME280;8731;50.364;8.958;2023-04-23T21:03:53;98897.28;;;14.63;81.39
17230;BME280;8731;50.364;8.958;2023-04-23T21:08:15;98898.06;;;14.62;81.06
17230;BME280;8731;50.364;8.958;2023-04-23T21:12:38;98890.22;;;14.29;84.70
17230;BME280;8731;50.364;8.958;2023-04-23T21:17:02;98896.13;;;14.28;84.82
17230;BME280;8731;50.364;8.958;2023-04-23T21:21:26;98886.31;;;14.36;83.60
17230;BME280;8731;50.364;8.958;2023-04-23T21:25:50;98893.28;;;14.38;83.05
17230;BME280;8731;50.364;8.958;2023-04-23T21:30:17;98898.34;;;14.37;82.38
17230;BME280;8731;50.364;8.958;2023-04-23T21:34:44;98899.94;;;14.35;81.93
17230;BME280;8731;50.364;8.958;2023-04-23T21:39:08;98905.84;;;14.34;81.70
17230;BME280;8731;50.364;8.958;2023-04-23T21:43:31;98907.34;;;14.30;80.99
17230;BME280;8731;50.364;8.958;2023-04-23T21:47:54;98911.16;;;14.22;82.28
17230;BME280;8731;50.364;8.958;2023-04-23T21:52:17;98915.72;;;14.13;83.52
17230;BME280;8731;50.364;8.958;2023-04-23T21:56:41;98909.19;;;14.03;83.89
17230;BME280;8731;50.364;8.958;2023-04-23T22:01:03;98920.66;;;13.95;84.02
17230;BME280;8731;50.364;8.958;2023-04-23T22:05:25;98917.28;;;13.81;85.52
17230;BME280;8731;50.364;8.958;2023-04-23T22:09:48;98913.50;;;13.75;85.55
17230;BME280;8731;50.364;8.958;2023-04-23T22:14:11;98913.66;;;13.78;84.98
17230;BME280;8731;50.364;8.958;2023-04-23T22:18:33;98909.66;;;13.54;86.57
17230;BME280;8731;50.364;8.958;2023-04-23T22:22:57;98917.94;;;13.64;86.21
17230;BME280;8731;50.364;8.958;2023-04-23T22:27:19;98907.19;;;13.55;86.83
17230;BME280;8731;50.364;8.958;2023-04-23T22:31:43;98909.41;;;13.64;85.99
17230;BME280;8731;50.364;8.958;2023-04-23T22:36:05;98901.72;;;13.64;85.65
17230;BME280;8731;50.364;8.958;2023-04-23T22:40:28;98900.31;;;13.54;86.64
17230;BME280;8731;50.364;8.958;2023-04-23T22:44:50;98893.25;;;13.65;86.08
17230;BME280;8731;50.364;8.958;2023-04-23T22:49:14;98890.44;;;13.60;86.01
17230;BME280;8731;50.364;8.958;2023-04-23T22:53:38;98882.50;;;13.56;84.67
17230;BME280;8731;50.364;8.958;2023-04-23T22:58:00;98879.13;;;13.57;85.47
17230;BME280;8731;50.364;8.958;2023-04-23T23:02:23;98888.41;;;13.55;85.16
17230;BME280;8731;50.364;8.958;2023-04-23T23:06:47;98888.22;;;13.51;85.09
17230;BME280;8731;50.364;8.958;2023-04-23T23:11:09;98888.44;;;13.41;85.08
17230;BME280;8731;50.364;8.958;2023-04-23T23:15:31;98880.69;;;13.40;84.42
17230;BME280;8731;50.364;8.958;2023-04-23T23:19:54;98876.00;;;13.33;84.47
17230;BME280;8731;50.364;8.958;2023-04-23T23:24:17;98878.84;;;13.24;84.68
17230;BME280;8731;50.364;8.958;2023-04-23T23:28:40;98867.97;;;13.00;84.39
17230;BME280;8731;50.364;8.958;2023-04-23T23:33:02;98871.72;;;13.05;83.84